sensor_id;sensor_type;location;lat;lon;timestamp;P1;durP1;ratioP1;P2;durP2;ratioP2
72109;SDS011;59983;52.010;5.420;2024-03-07T13:29:21;8.80;;;8.17;;
72109;SDS011;59983;52.010;5.420;2024-03-07T13:31:51;8.50;;;7.93;;
72109;SDS011;59983;52.010;5.420;2024-03-07T13:34:19;7.25;;;6.78;;
72109;SDS011;59983;52.010;5.420;2024-03-07T13:36:45;7.97;;;7.40;;
72109;SDS011;59983;52.010;5.420;2024-03-07T13:39:12;7.47;;;6.97;;
72109;SDS011;59983;52.010;5.420;2024-03-07T13:41:41;6.63;;;6.00;;
72109;SDS011;59983;52.010;5.420;2024-03-07T13:44:07;7.20;;;6.60;;
72109;SDS011;59983;52.010;5.420;2024-03-07T13:46:34;6.32;;;5.93;;
72109;SDS011;59983;52.010;5.420;2024-03-07T13:49:01;7.45;;;6.95;;
72109;SDS011;59983;52.010;5.420;2024-03-07T13:51:43;6.60;;;6.10;;
72109;SDS011;59983;52.010;5.420;2024-03-07T13:54:17;6.78;;;6.18;;
72109;SDS011;59983;52.010;5.420;2024-03-07T13:57:03;7.32;;;6.80;;
72109;SDS011;59983;52.010;5.420;2024-03-07T13:59:59;6.20;;;5.80;;
72109;SDS011;59983;52.010;5.420;2024-03-07T14:31:49;5.60;;;5.20;;
72109;SDS011;59983;52.010;5.420;2024-03-07T14:34:33;5.70;;;5.30;;
72109;SDS011;59983;52.010;5.420;2024-03-07T14:37:23;5.65;;;5.25;;
72109;SDS011;59983;52.010;5.420;2024-03-07T14:40:08;5.90;;;5.53;;
72109;SDS011;59983;52.010;5.420;2024-03-07T14:42:39;5.05;;;4.65;;
72109;SDS011;59983;52.010;5.420;2024-03-07T14:45:11;6.55;;;6.05;;
72109;SDS011;59983;52.010;5.420;2024-03-07T14:47:43;5.53;;;5.10;;
72109;SDS011;59983;52.010;5.420;2024-03-07T14:50:13;5.63;;;5.32;;
72109;SDS011;59983;52.010;5.420;2024-03-07T14:52:42;5.95;;;5.55;;
72109;SDS011;59983;52.010;5.420;2024-03-07T14:55:11;5.38;;;4.97;;
72109;SDS011;59983;52.010;5.420;2024-03-07T14:57:43;5.90;;;5.45;;
72109;SDS011;59983;52.010;5.420;2024-03-07T15:00:12;5.77;;;5.37;;
72109;SDS011;59983;52.010;5.420;2024-03-07T15:02:49;5.55;;;5.15;;
72109;SDS011;59983;52.010;5.420;2024-03-07T15:05:22;5.50;;;5.13;;
72109;SDS011;59983;52.010;5.420;2024-03-07T15:07:51;5.75;;;5.35;;
72109;SDS011;59983;52.010;5.420;2024-03-07T15:10:21;5.40;;;5.00;;
72109;SDS011;59983;52.010;5.420;2024-03-07T15:12:53;4.80;;;4.50;;
72109;SDS011;59983;52.010;5.420;2024-03-07T15:15:20;5.80;;;5.40;;
72109;SDS011;59983;52.010;5.420;2024-03-07T15:17:51;5.50;;;5.10;;
72109;SDS011;59983;52.010;5.420;2024-03-07T15:20:18;5.35;;;4.95;;
72109;SDS011;59983;52.010;5.420;2024-03-07T15:22:53;6.05;;;5.45;;
72109;SDS011;59983;52.010;5.420;2024-03-07T15:25:21;6.10;;;4.83;;
72109;SDS011;59983;52.010;5.420;2024-03-07T15:27:50;5.40;;;5.03;;
72109;SDS011;59983;52.010;5.420;2024-03-07T15:30:18;5.28;;;4.88;;
72109;SDS011;59983;52.010;5.420;2024-03-07T15:32:46;6.30;;;5.78;;
72109;SDS011;59983;52.010;5.420;2024-03-07T15:35:13;5.53;;;5.20;;
72109;SDS011;59983;52.010;5.420;2024-03-07T15:37:49;6.17;;;5.57;;
72109;SDS011;59983;52.010;5.420;2024-03-07T15:40:16;5.25;;;4.85;;
72109;SDS011;59983;52.010;5.420;2024-03-07T15:42:44;5.60;;;5.20;;
72109;SDS011;59983;52.010;5.420;2024-03-07T15:45:20;6.13;;;5.72;;
72109;SDS011;59983;52.010;5.420;2024-03-07T15:47:52;5.45;;;5.15;;
72109;SDS011;59983;52.010;5.420;2024-03-07T15:50:23;5.47;;;5.17;;
72109;SDS011;59983;52.010;5.420;2024-03-07T15:52:57;5.80;;;5.40;;
72109;SDS011;59983;52.010;5.420;2024-03-07T15:55:26;5.25;;;4.95;;
72109;SDS011;59983;52.010;5.420;2024-03-07T15:57:55;4.78;;;4.47;;
72109;SDS011;59983;52.010;5.420;2024-03-07T16:00:30;5.35;;;4.97;;
72109;SDS011;59983;52.010;5.420;2024-03-07T16:03:01;6.03;;;5.53;;
72109;SDS011;59983;52.010;5.420;2024-03-07T16:05:37;4.88;;;4.50;;
72109;SDS011;59983;52.010;5.420;2024-03-07T16:08:06;5.75;;;5.35;;
72109;SDS011;59983;52.010;5.420;2024-03-07T16:10:35;4.72;;;4.43;;
72109;SDS011;59983;52.010;5.420;2024-03-07T16:13:11;5.75;;;5.40;;
72109;SDS011;59983;52.010;5.420;2024-03-07T16:15:41;5.33;;;5.03;;
72109;SDS011;59983;52.010;5.420;2024-03-07T16:18:10;6.32;;;5.93;;
72109;SDS011;59983;52.010;5.420;2024-03-07T16:20:38;6.32;;;5.93;;
72109;SDS011;59983;52.010;5.420;2024-03-07T16:23:06;6.32;;;5.90;;
72109;SDS011;59983;52.010;5.420;2024-03-07T16:25:34;7.78;;;5.45;;
72109;SDS011;59983;52.010;5.420;2024-03-07T16:28:06;6.10;;;5.63;;
72109;SDS011;59983;52.010;5.420;2024-03-07T16:30:38;6.32;;;5.00;;
72109;SDS011;59983;52.010;5.420;2024-03-07T16:33:11;12.30;;;6.07;;
72109;SDS011;59983;52.010;5.420;2024-03-07T16:35:38;10.05;;;5.38;;
72109;SDS011;59983;52.010;5.420;2024-03-07T16:38:05;16.67;;;6.35;;
72109;SDS011;59983;52.010;5.420;2024-03-07T16:40:36;14.33;;;6.63;;
72109;SDS011;59983;52.010;5.420;2024-03-07T16:43:09;13.43;;;6.13;;
72109;SDS011;59983;52.010;5.420;2024-03-07T16:45:39;7.28;;;5.68;;
72109;SDS011;59983;52.010;5.420;2024-03-07T16:48:07;7.82;;;6.32;;
72109;SDS011;59983;52.010;5.420;2024-03-07T16:50:37;12.45;;;5.78;;
72109;SDS011;59983;52.010;5.420;2024-03-07T16:53:10;5.60;;;5.17;;
72109;SDS011;59983;52.010;5.420;2024-03-07T16:55:37;9.52;;;4.78;;
72109;SDS011;59983;52.010;5.420;2024-03-07T16:58:04;8.13;;;4.97;;
72109;SDS011;59983;52.010;5.420;2024-03-07T17:00:40;6.30;;;5.28;;
72109;SDS011;59983;52.010;5.420;2024-03-07T17:03:10;8.98;;;5.53;;
72109;SDS011;59983;52.010;5.420;2024-03-07T17:05:39;6.03;;;5.43;;
72109;SDS011;59983;52.010;5.420;2024-03-07T17:08:09;5.97;;;5.47;;
72109;SDS011;59983;52.010;5.420;2024-03-07T17:10:42;6.55;;;6.05;;
72109;SDS011;59983;52.010;5.420;2024-03-07T17:13:11;6.85;;;6.25;;
72109;SDS011;59983;52.010;5.420;2024-03-07T17:15:39;6.80;;;5.97;;
72109;SDS011;59983;52.010;5.420;2024-03-07T17:18:09;6.77;;;6.17;;
72109;SDS011;59983;52.010;5.420;2024-03-07T17:20:38;6.13;;;5.60;;
72109;SDS011;59983;52.010;5.420;2024-03-07T17:23:06;6.57;;;6.03;;
72109;SDS011;59983;52.010;5.420;2024-03-07T17:25:36;6.57;;;6.07;;
72109;SDS011;59983;52.010;5.420;2024-03-07T17:28:03;7.97;;;6.63;;
72109;SDS011;59983;52.010;5.420;2024-03-07T17:30:30;8.80;;;5.43;;
72109;SDS011;59983;52.010;5.420;2024-03-07T17:32:59;8.30;;;5.75;;
72109;SDS011;59983;52.010;5.420;2024-03-07T17:35:27;7.28;;;6.00;;
72109;SDS011;59983;52.010;5.420;2024-03-07T17:37:56;6.35;;;5.53;;
72109;SDS011;59983;52.010;5.420;2024-03-07T17:40:28;6.70;;;6.20;;
72109;SDS011;59983;52.010;5.420;2024-03-07T17:43:00;6.47;;;5.60;;
72109;SDS011;59983;52.010;5.420;2024-03-07T17:45:31;6.72;;;5.93;;
72109;SDS011;59983;52.010;5.420;2024-03-07T17:48:04;6.03;;;5.53;;
72109;SDS011;59983;52.010;5.420;2024-03-07T17:50:33;6.88;;;6.28;;
72109;SDS011;59983;52.010;5.420;2024-03-07T17:53:02;6.95;;;6.40;;
72109;SDS011;59983;52.010;5.420;2024-03-07T17:55:38;6.17;;;5.70;;
72109;SDS011;59983;52.010;5.420;2024-03-07T17:58:08;6.20;;;5.78;;
72109;SDS011;59983;52.010;5.420;2024-03-07T18:00:37;10.75;;;6.93;;
72109;SDS011;59983;52.010;5.420;2024-03-07T18:03:08;6.95;;;6.45;;
72109;SDS011;59983;52.010;5.420;2024-03-07T18:05:36;6.75;;;6.25;;
72109;SDS011;59983;52.010;5.420;2024-03-07T18:08:08;6.47;;;5.90;;
72109;SDS011;59983;52.010;5.420;2024-03-07T18:11:03;6.68;;;6.18;;
72109;SDS011;59983;52.010;5.420;2024-03-07T18:13:32;6.70;;;6.20;;
72109;SDS011;59983;52.010;5.420;2024-03-07T18:15:59;6.82;;;6.03;;
72109;SDS011;59983;52.010;5.420;2024-03-07T18:18:26;7.13;;;6.43;;
72109;SDS011;59983;52.010;5.420;2024-03-07T18:20:53;7.87;;;7.17;;
72109;SDS011;59983;52.010;5.420;2024-03-07T18:23:21;7.10;;;6.50;;
72109;SDS011;59983;52.010;5.420;2024-03-07T18:25:48;7.55;;;6.85;;
72109;SDS011;59983;52.010;5.420;2024-03-07T18:28:17;7.28;;;6.63;;
72109;SDS011;59983;52.010;5.420;2024-03-07T18:30:47;6.43;;;5.85;;
72109;SDS011;59983;52.010;5.420;2024-03-07T18:33:17;6.83;;;6.33;;
72109;SDS011;59983;52.010;5.420;2024-03-07T18:35:45;7.30;;;6.63;;
72109;SDS011;59983;52.010;5.420;2024-03-07T18:38:13;9.55;;;6.80;;
72109;SDS011;59983;52.010;5.420;2024-03-07T18:40:41;6.57;;;6.07;;
72109;SDS011;59983;52.010;5.420;2024-03-07T18:43:08;6.55;;;6.05;;
72109;SDS011;59983;52.010;5.420;2024-03-07T18:45:38;6.50;;;5.60;;
72109;SDS011;59983;52.010;5.420;2024-03-07T18:48:11;6.50;;;5.90;;
72109;SDS011;59983;52.010;5.420;2024-03-07T18:50:39;6.97;;;6.28;;
72109;SDS011;59983;52.010;5.420;2024-03-07T18:53:15;6.03;;;5.43;;
72109;SDS011;59983;52.010;5.420;2024-03-07T18:55:47;6.53;;;5.88;;
72109;SDS011;59983;52.010;5.420;2024-03-07T18:58:16;6.37;;;5.87;;
72109;SDS011;59983;52.010;5.420;2024-03-07T19:00:44;6.32;;;5.68;;
72109;SDS011;59983;52.010;5.420;2024-03-07T19:03:16;7.60;;;5.93;;
72109;SDS011;59983;52.010;5.420;2024-03-07T19:05:47;6.60;;;6.00;;
72109;SDS011;59983;52.010;5.420;2024-03-07T19:08:17;7.95;;;7.25;;
72109;SDS011;59983;52.010;5.420;2024-03-07T19:10:47;7.13;;;6.43;;
72109;SDS011;59983;52.010;5.420;2024-03-07T19:13:16;7.47;;;6.95;;
72109;SDS011;59983;52.010;5.420;2024-03-07T19:15:45;7.20;;;6.60;;
72109;SDS011;59983;52.010;5.420;2024-03-07T19:18:14;6.57;;;5.93;;
72109;SDS011;59983;52.010;5.420;2024-03-07T19:20:43;7.82;;;7.13;;
72109;SDS011;59983;52.010;5.420;2024-03-07T19:23:13;6.73;;;6.13;;
72109;SDS011;59983;52.010;5.420;2024-03-07T19:25:43;7.07;;;6.47;;
72109;SDS011;59983;52.010;5.420;2024-03-07T19:28:11;8.02;;;7.30;;
72109;SDS011;59983;52.010;5.420;2024-03-07T19:30:45;7.18;;;6.60;;
72109;SDS011;59983;52.010;5.420;2024-03-07T19:33:14;8.35;;;7.65;;
72109;SDS011;59983;52.010;5.420;2024-03-07T19:38:09;7.60;;;6.93;;
72109;SDS011;59983;52.010;5.420;2024-03-07T19:40:36;8.18;;;7.47;;
72109;SDS011;59983;52.010;5.420;2024-03-07T19:43:03;7.72;;;7.07;;
72109;SDS011;59983;52.010;5.420;2024-03-07T19:45:33;8.43;;;7.65;;
72109;SDS011;59983;52.010;5.420;2024-03-07T19:48:04;7.50;;;6.80;;
72109;SDS011;59983;52.010;5.420;2024-03-07T19:50:31;7.88;;;7.18;;
72109;SDS011;59983;52.010;5.420;2024-03-07T19:52:59;7.50;;;6.95;;
72109;SDS011;59983;52.010;5.420;2024-03-07T19:55:28;7.88;;;7.15;;
72109;SDS011;59983;52.010;5.420;2024-03-07T19:57:58;7.43;;;6.82;;
72109;SDS011;59983;52.010;5.420;2024-03-07T20:00:25;7.63;;;6.23;;
72109;SDS011;59983;52.010;5.420;2024-03-07T20:03:01;7.93;;;7.13;;
72109;SDS011;59983;52.010;5.420;2024-03-07T20:05:33;7.63;;;6.93;;
72109;SDS011;59983;52.010;5.420;2024-03-07T20:08:01;6.93;;;6.25;;
72109;SDS011;59983;52.010;5.420;2024-03-07T20:10:32;7.85;;;7.18;;
72109;SDS011;59983;52.010;5.420;2024-03-07T20:13:01;7.37;;;6.77;;
72109;SDS011;59983;52.010;5.420;2024-03-07T20:15:28;7.05;;;6.45;;
72109;SDS011;59983;52.010;5.420;2024-03-07T20:17:55;8.35;;;7.60;;
72109;SDS011;59983;52.010;5.420;2024-03-07T20:20:23;8.10;;;6.85;;
72109;SDS011;59983;52.010;5.420;2024-03-07T20:22:51;7.32;;;6.68;;
72109;SDS011;59983;52.010;5.420;2024-03-07T20:25:21;9.53;;;7.17;;
72109;SDS011;59983;52.010;5.420;2024-03-07T20:27:49;8.63;;;7.90;;
72109;SDS011;59983;52.010;5.420;2024-03-07T20:30:21;7.03;;;6.45;;
72109;SDS011;59983;52.010;5.420;2024-03-07T20:32:48;8.48;;;7.65;;
72109;SDS011;59983;52.010;5.420;2024-03-07T20:35:16;8.75;;;7.95;;
72109;SDS011;59983;52.010;5.420;2024-03-07T20:37:46;8.10;;;6.93;;
72109;SDS011;59983;52.010;5.420;2024-03-07T20:40:15;8.00;;;7.40;;
72109;SDS011;59983;52.010;5.420;2024-03-07T20:42:44;7.63;;;7.03;;
72109;SDS011;59983;52.010;5.420;2024-03-07T20:45:11;8.25;;;7.45;;
72109;SDS011;59983;52.010;5.420;2024-03-07T20:47:45;7.78;;;7.13;;
72109;SDS011;59983;52.010;5.420;2024-03-07T20:50:15;7.83;;;7.13;;
72109;SDS011;59983;52.010;5.420;2024-03-07T20:52:45;8.23;;;7.28;;
72109;SDS011;59983;52.010;5.420;2024-03-07T20:55:19;8.63;;;7.80;;
72109;SDS011;59983;52.010;5.420;2024-03-07T20:57:49;8.30;;;7.50;;
72109;SDS011;59983;52.010;5.420;2024-03-07T21:00:21;10.43;;;7.20;;
72109;SDS011;59983;52.010;5.420;2024-03-07T21:02:57;8.00;;;7.17;;
72109;SDS011;59983;52.010;5.420;2024-03-07T21:05:24;8.43;;;7.57;;
72109;SDS011;59983;52.010;5.420;2024-03-07T21:07:51;8.90;;;8.07;;
72109;SDS011;59983;52.010;5.420;2024-03-07T21:10:22;7.95;;;7.25;;
72109;SDS011;59983;52.010;5.420;2024-03-07T21:12:55;8.45;;;7.65;;
72109;SDS011;59983;52.010;5.420;2024-03-07T21:15:23;8.70;;;7.80;;
72109;SDS011;59983;52.010;5.420;2024-03-07T21:17:55;8.40;;;7.60;;
72109;SDS011;59983;52.010;5.420;2024-03-07T21:20:24;7.32;;;6.72;;
72109;SDS011;59983;52.010;5.420;2024-03-07T21:22:51;8.15;;;7.35;;
72109;SDS011;59983;52.010;5.420;2024-03-07T21:25:18;9.07;;;8.02;;
72109;SDS011;59983;52.010;5.420;2024-03-07T21:27:49;7.80;;;7.10;;
72109;SDS011;59983;52.010;5.420;2024-03-07T21:30:16;7.80;;;7.05;;
72109;SDS011;59983;52.010;5.420;2024-03-07T21:32:44;7.88;;;6.80;;
72109;SDS011;59983;52.010;5.420;2024-03-07T21:35:12;8.68;;;7.53;;
72109;SDS011;59983;52.010;5.420;2024-03-07T21:37:40;8.68;;;7.07;;
72109;SDS011;59983;52.010;5.420;2024-03-07T21:40:09;8.83;;;7.93;;
72109;SDS011;59983;52.010;5.420;2024-03-07T21:42:42;8.45;;;7.68;;
72109;SDS011;59983;52.010;5.420;2024-03-07T21:45:09;8.15;;;7.35;;
72109;SDS011;59983;52.010;5.420;2024-03-07T21:47:38;9.13;;;7.95;;
72109;SDS011;59983;52.010;5.420;2024-03-07T21:50:08;8.13;;;7.40;;
72109;SDS011;59983;52.010;5.420;2024-03-07T21:52:46;7.93;;;7.13;;
72109;SDS011;59983;52.010;5.420;2024-03-07T21:55:16;7.70;;;7.00;;
72109;SDS011;59983;52.010;5.420;2024-03-07T21:57:46;9.57;;;8.68;;
